sensor_id;sensor_type;location;lat;lon;timestamp;temperature;humidity
48806;DHT22;34625;47.176;27.548;2022-12-07T00:01:13;22.10;56.90
48806;DHT22;34625;47.176;27.548;2022-12-07T00:03:40;22.10;56.80
48806;DHT22;34625;47.176;27.548;2022-12-07T00:06:09;22.10;56.70
48806;DHT22;34625;47.176;27.548;2022-12-07T00:08:35;22.10;56.60
48806;DHT22;34625;47.176;27.548;2022-12-07T00:11:14;22.20;56.70
48806;DHT22;34625;47.176;27.548;2022-12-07T00:13:41;22.00;56.60
48806;DHT22;34625;47.176;27.548;2022-12-07T00:16:09;22.00;56.80
48806;DHT22;34625;47.176;27.548;2022-12-07T00:18:36;22.00;57.10
48806;DHT22;34625;47.176;27.548;2022-12-07T00:21:06;22.00;56.90
48806;DHT22;34625;47.176;27.548;2022-12-07T00:23:33;22.00;57.10
48806;DHT22;34625;47.176;27.548;2022-12-07T00:26:07;22.00;57.20
48806;DHT22;34625;47.176;27.548;2022-12-07T00:28:33;22.00;57.10
48806;DHT22;34625;47.176;27.548;2022-12-07T00:31:11;22.00;57.00
48806;DHT22;34625;47.176;27.548;2022-12-07T00:33:37;22.00;57.00
48806;DHT22;34625;47.176;27.548;2022-12-07T00:36:07;22.00;56.90
48806;DHT22;34625;47.176;27.548;2022-12-07T00:38:35;21.90;56.90
48806;DHT22;34625;47.176;27.548;2022-12-07T00:41:05;21.90;57.00
48806;DHT22;34625;47.176;27.548;2022-12-07T00:43:31;21.90;57.00
48806;DHT22;34625;47.176;27.548;2022-12-07T00:45:58;21.90;56.90
48806;DHT22;34625;47.176;27.548;2022-12-07T00:48:24;22.00;56.80
48806;DHT22;34625;47.176;27.548;2022-12-07T00:50:50;22.00;56.80
48806;DHT22;34625;47.176;27.548;2022-12-07T00:53:17;22.00;56.60
48806;DHT22;34625;47.176;27.548;2022-12-07T00:55:44;22.00;56.40
48806;DHT22;34625;47.176;27.548;2022-12-07T00:58:10;21.90;56.50
48806;DHT22;34625;47.176;27.548;2022-12-07T01:00:38;21.90;56.50
48806;DHT22;34625;47.176;27.548;2022-12-07T01:03:05;21.90;56.60
48806;DHT22;34625;47.176;27.548;2022-12-07T01:05:32;21.90;56.60
48806;DHT22;34625;47.176;27.548;2022-12-07T01:07:58;21.90;56.50
48806;DHT22;34625;47.176;27.548;2022-12-07T01:10:24;21.80;56.50
48806;DHT22;34625;47.176;27.548;2022-12-07T01:12:50;21.80;56.40
48806;DHT22;34625;47.176;27.548;2022-12-07T01:15:16;21.90;56.50
48806;DHT22;34625;47.176;27.548;2022-12-07T01:17:42;21.80;56.50
48806;DHT22;34625;47.176;27.548;2022-12-07T01:20:08;21.80;56.40
48806;DHT22;34625;47.176;27.548;2022-12-07T01:22:41;21.80;56.40
48806;DHT22;34625;47.176;27.548;2022-12-07T01:25:08;21.80;56.50
48806;DHT22;34625;47.176;27.548;2022-12-07T01:27:35;21.90;56.40
48806;DHT22;34625;47.176;27.548;2022-12-07T01:30:04;22.00;56.20
48806;DHT22;34625;47.176;27.548;2022-12-07T01:32:30;21.90;56.20
48806;DHT22;34625;47.176;27.548;2022-12-07T01:34:56;21.90;56.20
48806;DHT22;34625;47.176;27.548;2022-12-07T01:37:22;21.90;56.20
48806;DHT22;34625;47.176;27.548;2022-12-07T01:39:49;21.80;56.10
48806;DHT22;34625;47.176;27.548;2022-12-07T01:42:17;22.00;56.10
48806;DHT22;34625;47.176;27.548;2022-12-07T01:45:25;21.90;55.80
48806;DHT22;34625;47.176;27.548;2022-12-07T01:47:57;21.90;55.90
48806;DHT22;34625;47.176;27.548;2022-12-07T01:50:26;21.80;55.80
48806;DHT22;34625;47.176;27.548;2022-12-07T01:52:55;21.70;55.80
48806;DHT22;34625;47.176;27.548;2022-12-07T01:55:22;21.80;55.80
48806;DHT22;34625;47.176;27.548;2022-12-07T01:57:52;21.70;55.80
48806;DHT22;34625;47.176;27.548;2022-12-07T02:00:19;21.70;55.90
48806;DHT22;34625;47.176;27.548;2022-12-07T02:03:00;21.80;56.00
48806;DHT22;34625;47.176;27.548;2022-12-07T02:05:27;21.70;55.90
48806;DHT22;34625;47.176;27.548;2022-12-07T02:07:55;21.80;56.00
48806;DHT22;34625;47.176;27.548;2022-12-07T02:10:25;21.80;56.10
48806;DHT22;34625;47.176;27.548;2022-12-07T02:13:02;21.60;56.00
48806;DHT22;34625;47.176;27.548;2022-12-07T02:15:49;21.70;56.10
48806;DHT22;34625;47.176;27.548;2022-12-07T02:29:18;21.70;55.80
48806;DHT22;34625;47.176;27.548;2022-12-07T02:31:53;21.80;55.60
48806;DHT22;34625;47.176;27.548;2022-12-07T02:34:36;21.80;55.60
48806;DHT22;34625;47.176;27.548;2022-12-07T02:40:02;21.60;55.70
48806;DHT22;34625;47.176;27.548;2022-12-07T02:42:49;21.60;55.70
48806;DHT22;34625;47.176;27.548;2022-12-07T02:45:20;21.50;55.70
48806;DHT22;34625;47.176;27.548;2022-12-07T02:47:50;21.50;55.80
48806;DHT22;34625;47.176;27.548;2022-12-07T02:50:21;21.50;55.80
48806;DHT22;34625;47.176;27.548;2022-12-07T02:52:47;21.50;56.00
48806;DHT22;34625;47.176;27.548;2022-12-07T02:55:17;21.40;55.90
48806;DHT22;34625;47.176;27.548;2022-12-07T03:00:24;21.50;56.00
48806;DHT22;34625;47.176;27.548;2022-12-07T03:13:41;21.50;55.70
48806;DHT22;34625;47.176;27.548;2022-12-07T03:16:27;21.60;55.60
48806;DHT22;34625;47.176;27.548;2022-12-07T03:19:22;21.50;55.50
48806;DHT22;34625;47.176;27.548;2022-12-07T03:21:56;21.60;55.30
48806;DHT22;34625;47.176;27.548;2022-12-07T03:24:28;21.50;55.30
48806;DHT22;34625;47.176;27.548;2022-12-07T03:27:04;21.50;55.30
48806;DHT22;34625;47.176;27.548;2022-12-07T03:29:36;21.50;55.30
48806;DHT22;34625;47.176;27.548;2022-12-07T03:32:16;21.50;55.40
48806;DHT22;34625;47.176;27.548;2022-12-07T03:40:52;21.30;55.40
48806;DHT22;34625;47.176;27.548;2022-12-07T03:43:21;21.40;55.40
48806;DHT22;34625;47.176;27.548;2022-12-07T03:48:53;21.40;55.40
48806;DHT22;34625;47.176;27.548;2022-12-07T03:51:34;21.40;55.40
48806;DHT22;34625;47.176;27.548;2022-12-07T03:54:19;21.30;55.20
48806;DHT22;34625;47.176;27.548;2022-12-07T03:56:47;21.40;55.30
48806;DHT22;34625;47.176;27.548;2022-12-07T03:59:15;21.40;55.20
48806;DHT22;34625;47.176;27.548;2022-12-07T04:01:44;21.40;55.10
48806;DHT22;34625;47.176;27.548;2022-12-07T04:04:10;21.40;55.10
48806;DHT22;34625;47.176;27.548;2022-12-07T04:06:36;21.40;55.00
48806;DHT22;34625;47.176;27.548;2022-12-07T04:09:03;21.50;55.10
48806;DHT22;34625;47.176;27.548;2022-12-07T04:11:29;21.50;55.00
48806;DHT22;34625;47.176;27.548;2022-12-07T04:13:54;21.50;54.90
48806;DHT22;34625;47.176;27.548;2022-12-07T04:16:39;21.60;55.00
48806;DHT22;34625;47.176;27.548;2022-12-07T04:19:05;21.40;55.00
48806;DHT22;34625;47.176;27.548;2022-12-07T04:21:31;21.40;55.00
48806;DHT22;34625;47.176;27.548;2022-12-07T04:23:57;21.30;55.00
48806;DHT22;34625;47.176;27.548;2022-12-07T04:26:23;21.40;55.00
48806;DHT22;34625;47.176;27.548;2022-12-07T04:28:49;21.20;54.90
48806;DHT22;34625;47.176;27.548;2022-12-07T04:31:15;21.20;55.00
48806;DHT22;34625;47.176;27.548;2022-12-07T04:33:41;21.20;55.00
48806;DHT22;34625;47.176;27.548;2022-12-07T04:36:07;21.20;55.00
48806;DHT22;34625;47.176;27.548;2022-12-07T04:38:33;21.30;55.00
48806;DHT22;34625;47.176;27.548;2022-12-07T04:41:05;21.40;54.80
48806;DHT22;34625;47.176;27.548;2022-12-07T04:43:31;21.40;54.70
48806;DHT22;34625;47.176;27.548;2022-12-07T04:45:57;21.50;54.70
48806;DHT22;34625;47.176;27.548;2022-12-07T04:48:23;21.50;54.70
48806;DHT22;34625;47.176;27.548;2022-12-07T04:50:49;21.50;54.50
48806;DHT22;34625;47.176;27.548;2022-12-07T04:53:15;21.50;54.70
48806;DHT22;34625;47.176;27.548;2022-12-07T04:55:41;21.60;54.70
48806;DHT22;34625;47.176;27.548;2022-12-07T04:58:07;21.40;54.70
48806;DHT22;34625;47.176;27.548;2022-12-07T05:00:33;21.50;54.80
48806;DHT22;34625;47.176;27.548;2022-12-07T05:02:59;21.50;54.70
48806;DHT22;34625;47.176;27.548;2022-12-07T05:05:25;21.60;54.70
48806;DHT22;34625;47.176;27.548;2022-12-07T05:07:51;21.70;54.40
48806;DHT22;34625;47.176;27.548;2022-12-07T05:10:17;21.60;54.20
48806;DHT22;34625;47.176;27.548;2022-12-07T05:12:43;21.70;54.40
48806;DHT22;34625;47.176;27.548;2022-12-07T05:15:09;21.60;54.40
48806;DHT22;34625;47.176;27.548;2022-12-07T05:17:35;21.70;54.50
48806;DHT22;34625;47.176;27.548;2022-12-07T05:20:01;21.60;54.80
48806;DHT22;34625;47.176;27.548;2022-12-07T05:22:27;21.70;54.80
48806;DHT22;34625;47.176;27.548;2022-12-07T05:24:55;21.80;54.40
48806;DHT22;34625;47.176;27.548;2022-12-07T05:27:21;21.90;58.50
48806;DHT22;34625;47.176;27.548;2022-12-07T05:29:47;22.40;58.70
48806;DHT22;34625;47.176;27.548;2022-12-07T05:32:13;22.80;59.40
48806;DHT22;34625;47.176;27.548;2022-12-07T05:34:39;23.00;64.10
48806;DHT22;34625;47.176;27.548;2022-12-07T05:37:05;23.10;57.20
48806;DHT22;34625;47.176;27.548;2022-12-07T05:39:30;23.10;54.50
48806;DHT22;34625;47.176;27.548;2022-12-07T05:41:56;23.10;52.40
48806;DHT22;34625;47.176;27.548;2022-12-07T05:44:43;22.70;52.00
48806;DHT22;34625;47.176;27.548;2022-12-07T05:47:10;22.60;52.00
48806;DHT22;34625;47.176;27.548;2022-12-07T05:49:36;22.50;52.70
48806;DHT22;34625;47.176;27.548;2022-12-07T05:52:02;22.30;53.40
48806;DHT22;34625;47.176;27.548;2022-12-07T05:54:29;22.30;53.90
48806;DHT22;34625;47.176;27.548;2022-12-07T05:56:55;22.30;54.30
48806;DHT22;34625;47.176;27.548;2022-12-07T05:59:21;22.20;54.40
48806;DHT22;34625;47.176;27.548;2022-12-07T06:01:54;22.20;52.60
48806;DHT22;34625;47.176;27.548;2022-12-07T06:04:22;22.10;48.50
48806;DHT22;34625;47.176;27.548;2022-12-07T06:06:49;22.10;49.30
48806;DHT22;34625;47.176;27.548;2022-12-07T06:09:15;22.10;49.50
48806;DHT22;34625;47.176;27.548;2022-12-07T06:11:42;22.30;48.80
48806;DHT22;34625;47.176;27.548;2022-12-07T06:14:26;22.20;46.00
48806;DHT22;34625;47.176;27.548;2022-12-07T06:16:52;22.20;46.10
48806;DHT22;34625;47.176;27.548;2022-12-07T06:19:18;22.30;46.20
48806;DHT22;34625;47.176;27.548;2022-12-07T06:21:44;22.10;47.40
48806;DHT22;34625;47.176;27.548;2022-12-07T06:24:11;22.10;47.50
48806;DHT22;34625;47.176;27.548;2022-12-07T06:26:38;22.30;48.80
48806;DHT22;34625;47.176;27.548;2022-12-07T06:29:04;22.20;47.70
48806;DHT22;34625;47.176;27.548;2022-12-07T06:31:30;22.20;47.70
48806;DHT22;34625;47.176;27.548;2022-12-07T06:34:00;22.10;50.10
48806;DHT22;34625;47.176;27.548;2022-12-07T06:36:27;22.20;49.40
48806;DHT22;34625;47.176;27.548;2022-12-07T06:38:53;22.10;48.40
48806;DHT22;34625;47.176;27.548;2022-12-07T06:41:20;22.10;57.10
48806;DHT22;34625;47.176;27.548;2022-12-07T06:43:46;22.40;58.80
48806;DHT22;34625;47.176;27.548;2022-12-07T06:46:13;22.40;58.90
48806;DHT22;34625;47.176;27.548;2022-12-07T06:48:40;22.30;58.70
48806;DHT22;34625;47.176;27.548;2022-12-07T06:51:06;22.30;58.70
48806;DHT22;34625;47.176;27.548;2022-12-07T06:53:32;22.20;58.80
48806;DHT22;34625;47.176;27.548;2022-12-07T06:55:59;22.30;59.10
48806;DHT22;34625;47.176;27.548;2022-12-07T06:58:25;22.20;59.00
48806;DHT22;34625;47.176;27.548;2022-12-07T07:00:51;22.20;59.00
48806;DHT22;34625;47.176;27.548;2022-12-07T07:03:17;22.10;59.20
48806;DHT22;34625;47.176;27.548;2022-12-07T07:05:43;22.10;61.50
48806;DHT22;34625;47.176;27.548;2022-12-07T07:08:10;22.00;60.50
48806;DHT22;34625;47.176;27.548;2022-12-07T07:10:37;22.10;60.10
48806;DHT22;34625;47.176;27.548;2022-12-07T07:13:03;22.10;59.40
48806;DHT22;34625;47.176;27.548;2022-12-07T07:15:30;22.40;58.90
48806;DHT22;34625;47.176;27.548;2022-12-07T07:17:56;22.30;58.40
48806;DHT22;34625;47.176;27.548;2022-12-07T07:20:22;22.50;58.30
48806;DHT22;34625;47.176;27.548;2022-12-07T07:22:49;22.50;57.20
48806;DHT22;34625;47.176;27.548;2022-12-07T07:25:15;22.60;55.90
48806;DHT22;34625;47.176;27.548;2022-12-07T07:27:41;22.60;54.90
48806;DHT22;34625;47.176;27.548;2022-12-07T07:30:08;22.70;54.30
48806;DHT22;34625;47.176;27.548;2022-12-07T07:32:34;22.70;54.10
48806;DHT22;34625;47.176;27.548;2022-12-07T07:35:00;22.70;53.90
48806;DHT22;34625;47.176;27.548;2022-12-07T07:37:26;22.70;53.80
48806;DHT22;34625;47.176;27.548;2022-12-07T07:39:52;22.80;53.70
48806;DHT22;34625;47.176;27.548;2022-12-07T07:42:18;22.80;53.60
48806;DHT22;34625;47.176;27.548;2022-12-07T07:44:45;22.80;53.50
48806;DHT22;34625;47.176;27.548;2022-12-07T07:47:11;22.70;54.00
48806;DHT22;34625;47.176;27.548;2022-12-07T07:49:37;22.60;54.80
48806;DHT22;34625;47.176;27.548;2022-12-07T07:52:05;22.60;55.70
48806;DHT22;34625;47.176;27.548;2022-12-07T07:54:31;22.50;56.20
48806;DHT22;34625;47.176;27.548;2022-12-07T07:56:57;22.50;55.70
48806;DHT22;34625;47.176;27.548;2022-12-07T07:59:23;22.50;57.20
48806;DHT22;34625;47.176;27.548;2022-12-07T08:01:50;22.50;57.20
48806;DHT22;34625;47.176;27.548;2022-12-07T08:04:16;22.50;57.20
48806;DHT22;34625;47.176;27.548;2022-12-07T08:06:42;22.50;57.20
48806;DHT22;34625;47.176;27.548;2022-12-07T08:09:08;22.50;57.60
48806;DHT22;34625;47.176;27.548;2022-12-07T08:11:35;22.60;57.60
48806;DHT22;34625;47.176;27.548;2022-12-07T08:14:02;22.60;61.80
48806;DHT22;34625;47.176;27.548;2022-12-07T08:16:28;23.00;63.80
48806;DHT22;34625;47.176;27.548;2022-12-07T08:18:54;23.30;54.40
48806;DHT22;34625;47.176;27.548;2022-12-07T08:21:20;23.40;58.90
48806;DHT22;34625;47.176;27.548;2022-12-07T08:23:46;23.50;58.20
48806;DHT22;34625;47.176;27.548;2022-12-07T08:26:14;23.50;56.50
48806;DHT22;34625;47.176;27.548;2022-12-07T08:28:41;23.40;56.70
48806;DHT22;34625;47.176;27.548;2022-12-07T08:31:13;23.30;56.00
48806;DHT22;34625;47.176;27.548;2022-12-07T08:33:40;23.10;58.70
48806;DHT22;34625;47.176;27.548;2022-12-07T08:36:11;22.90;58.30
48806;DHT22;34625;47.176;27.548;2022-12-07T08:38:39;22.90;59.80
48806;DHT22;34625;47.176;27.548;2022-12-07T08:41:06;22.80;59.80
48806;DHT22;34625;47.176;27.548;2022-12-07T08:43:32;22.80;58.20
48806;DHT22;34625;47.176;27.548;2022-12-07T08:48:30;22.80;58.90
48806;DHT22;34625;47.176;27.548;2022-12-07T08:50:58;22.80;59.00
48806;DHT22;34625;47.176;27.548;2022-12-07T08:53:24;22.90;59.00
48806;DHT22;34625;47.176;27.548;2022-12-07T08:55:50;23.00;58.50
48806;DHT22;34625;47.176;27.548;2022-12-07T08:58:16;23.00;58.30
48806;DHT22;34625;47.176;27.548;2022-12-07T09:00:42;23.00;58.00
48806;DHT22;34625;47.176;27.548;2022-12-07T09:03:08;23.20;58.60
48806;DHT22;34625;47.176;27.548;2022-12-07T09:05:34;23.20;58.70
48806;DHT22;34625;47.176;27.548;2022-12-07T09:08:01;23.20;58.70
48806;DHT22;34625;47.176;27.548;2022-12-07T09:10:28;23.20;57.90
48806;DHT22;34625;47.176;27.548;2022-12-07T09:12:55;23.20;58.60
48806;DHT22;34625;47.176;27.548;2022-12-07T09:15:21;23.30;58.70
48806;DHT22;34625;47.176;27.548;2022-12-07T09:17:46;23.30;58.70
48806;DHT22;34625;47.176;27.548;2022-12-07T09:20:13;23.20;58.40
48806;DHT22;34625;47.176;27.548;2022-12-07T09:22:38;23.50;58.50
48806;DHT22;34625;47.176;27.548;2022-12-07T09:25:05;23.50;58.70
48806;DHT22;34625;47.176;27.548;2022-12-07T09:27:31;23.50;59.00
48806;DHT22;34625;47.176;27.548;2022-12-07T09:29:57;23.50;58.90
48806;DHT22;34625;47.176;27.548;2022-12-07T09:32:23;23.50;58.60
48806;DHT22;34625;47.176;27.548;2022-12-07T09:34:49;23.60;58.40
48806;DHT22;34625;47.176;27.548;2022-12-07T09:37:16;23.50;58.20
48806;DHT22;34625;47.176;27.548;2022-12-07T09:39:41;23.60;58.10
48806;DHT22;34625;47.176;27.548;2022-12-07T09:42:08;23.50;58.20
48806;DHT22;34625;47.176;27.548;2022-12-07T09:44:36;23.60;58.40
48806;DHT22;34625;47.176;27.548;2022-12-07T09:47:05;23.60;58.20
48806;DHT22;34625;47.176;27.548;2022-12-07T09:49:32;23.70;61.60
48806;DHT22;34625;47.176;27.548;2022-12-07T09:52:03;23.90;54.90
48806;DHT22;34625;47.176;27.548;2022-12-07T09:54:46;24.10;53.20
48806;DHT22;34625;47.176;27.548;2022-12-07T09:57:13;24.10;50.70
48806;DHT22;34625;47.176;27.548;2022-12-07T09:59:40;24.20;50.40
48806;DHT22;34625;47.176;27.548;2022-12-07T10:05:07;24.30;48.10
48806;DHT22;34625;47.176;27.548;2022-12-07T10:07:35;24.40;44.70
48806;DHT22;34625;47.176;27.548;2022-12-07T10:10:04;24.40;43.60
48806;DHT22;34625;47.176;27.548;2022-12-07T10:13:02;24.40;44.70
48806;DHT22;34625;47.176;27.548;2022-12-07T10:15:56;24.40;43.20
48806;DHT22;34625;47.176;27.548;2022-12-07T10:18:38;24.40;46.00
48806;DHT22;34625;47.176;27.548;2022-12-07T10:21:16;24.30;42.60
48806;DHT22;34625;47.176;27.548;2022-12-07T10:32:04;24.30;54.50
48806;DHT22;34625;47.176;27.548;2022-12-07T10:34:34;24.40;55.00
48806;DHT22;34625;47.176;27.548;2022-12-07T10:37:14;24.30;55.60
48806;DHT22;34625;47.176;27.548;2022-12-07T10:42:28;24.40;51.80
48806;DHT22;34625;47.176;27.548;2022-12-07T10:53:27;24.60;60.20
48806;DHT22;34625;47.176;27.548;2022-12-07T11:10:15;24.70;58.10
48806;DHT22;34625;47.176;27.548;2022-12-07T11:25:39;24.60;45.50
48806;DHT22;34625;47.176;27.548;2022-12-07T11:36:47;24.70;56.50
48806;DHT22;34625;47.176;27.548;2022-12-07T11:39:33;24.50;56.90
48806;DHT22;34625;47.176;27.548;2022-12-07T11:42:06;24.60;57.40
48806;DHT22;34625;47.176;27.548;2022-12-07T11:44:52;24.50;57.60
48806;DHT22;34625;47.176;27.548;2022-12-07T11:50:14;24.50;58.50
48806;DHT22;34625;47.176;27.548;2022-12-07T11:52:48;24.40;58.70
48806;DHT22;34625;47.176;27.548;2022-12-07T11:58:18;24.30;58.80
48806;DHT22;34625;47.176;27.548;2022-12-07T12:00:41;24.30;58.60
48806;DHT22;34625;47.176;27.548;2022-12-07T12:03:23;24.20;58.10
48806;DHT22;34625;47.176;27.548;2022-12-07T12:05:56;24.10;58.20
48806;DHT22;34625;47.176;27.548;2022-12-07T12:08:45;24.00;58.60
48806;DHT22;34625;47.176;27.548;2022-12-07T12:21:58;23.90;60.70
48806;DHT22;34625;47.176;27.548;2022-12-07T12:24:29;23.90;60.70
48806;DHT22;34625;47.176;27.548;2022-12-07T12:27:23;23.90;60.70
48806;DHT22;34625;47.176;27.548;2022-12-07T12:29:56;23.90;60.60
48806;DHT22;34625;47.176;27.548;2022-12-07T12:32:41;23.80;60.50
48806;DHT22;34625;47.176;27.548;2022-12-07T12:35:32;23.90;60.70
48806;DHT22;34625;47.176;27.548;2022-12-07T12:40:55;23.80;60.60
48806;DHT22;34625;47.176;27.548;2022-12-07T12:43:44;23.80;60.40
48806;DHT22;34625;47.176;27.548;2022-12-07T12:51:47;23.80;60.60
48806;DHT22;34625;47.176;27.548;2022-12-07T13:02:30;23.70;63.10
48806;DHT22;34625;47.176;27.548;2022-12-07T13:05:20;23.80;62.60
48806;DHT22;34625;47.176;27.548;2022-12-07T13:29:15;24.00;62.00
48806;DHT22;34625;47.176;27.548;2022-12-07T13:31:55;24.00;62.30
48806;DHT22;34625;47.176;27.548;2022-12-07T13:34:35;23.90;62.40
48806;DHT22;34625;47.176;27.548;2022-12-07T13:39:35;23.80;62.50
48806;DHT22;34625;47.176;27.548;2022-12-07T13:42:30;23.90;62.60
48806;DHT22;34625;47.176;27.548;2022-12-07T13:44:58;23.80;62.70
48806;DHT22;34625;47.176;27.548;2022-12-07T13:47:41;23.70;62.80
48806;DHT22;34625;47.176;27.548;2022-12-07T13:50:28;23.60;62.70
48806;DHT22;34625;47.176;27.548;2022-12-07T13:52:55;23.50;62.70
48806;DHT22;34625;47.176;27.548;2022-12-07T13:55:22;23.50;62.70
48806;DHT22;34625;47.176;27.548;2022-12-07T13:57:50;23.40;62.60
48806;DHT22;34625;47.176;27.548;2022-12-07T14:00:28;23.40;62.70
48806;DHT22;34625;47.176;27.548;2022-12-07T14:03:00;23.40;62.40
48806;DHT22;34625;47.176;27.548;2022-12-07T14:10:33;23.40;53.30
48806;DHT22;34625;47.176;27.548;2022-12-07T14:13:00;23.60;54.50
48806;DHT22;34625;47.176;27.548;2022-12-07T14:15:32;23.90;58.90
48806;DHT22;34625;47.176;27.548;2022-12-07T14:18:00;24.10;63.40
48806;DHT22;34625;47.176;27.548;2022-12-07T14:22:58;24.00;61.70
48806;DHT22;34625;47.176;27.548;2022-12-07T14:25:26;23.90;61.70
48806;DHT22;34625;47.176;27.548;2022-12-07T14:28:00;23.90;61.70
48806;DHT22;34625;47.176;27.548;2022-12-07T14:30:31;23.90;61.40
48806;DHT22;34625;47.176;27.548;2022-12-07T14:33:00;23.80;61.60
48806;DHT22;34625;47.176;27.548;2022-12-07T14:35:27;23.70;61.60
48806;DHT22;34625;47.176;27.548;2022-12-07T14:37:54;23.60;62.10
48806;DHT22;34625;47.176;27.548;2022-12-07T14:40:27;23.50;62.00
48806;DHT22;34625;47.176;27.548;2022-12-07T14:43:03;23.50;62.00
48806;DHT22;34625;47.176;27.548;2022-12-07T14:45:30;23.40;62.30
48806;DHT22;34625;47.176;27.548;2022-12-07T14:47:56;23.50;62.00
48806;DHT22;34625;47.176;27.548;2022-12-07T14:50:22;23.50;62.10
48806;DHT22;34625;47.176;27.548;2022-12-07T14:52:52;23.40;61.70
48806;DHT22;34625;47.176;27.548;2022-12-07T14:55:27;23.50;61.90
48806;DHT22;34625;47.176;27.548;2022-12-07T14:57:54;23.40;61.40
48806;DHT22;34625;47.176;27.548;2022-12-07T15:00:22;23.30;62.40
48806;DHT22;34625;47.176;27.548;2022-12-07T15:02:49;23.40;62.80
48806;DHT22;34625;47.176;27.548;2022-12-07T15:05:16;23.30;53.90
48806;DHT22;34625;47.176;27.548;2022-12-07T15:07:43;23.60;56.50
48806;DHT22;34625;47.176;27.548;2022-12-07T15:10:26;23.90;57.40
48806;DHT22;34625;47.176;27.548;2022-12-07T15:12:58;24.30;55.00
48806;DHT22;34625;47.176;27.548;2022-12-07T15:15:45;24.40;57.70
48806;DHT22;34625;47.176;27.548;2022-12-07T15:18:11;24.30;62.80
48806;DHT22;34625;47.176;27.548;2022-12-07T15:20:38;24.40;60.40
48806;DHT22;34625;47.176;27.548;2022-12-07T15:23:04;24.40;58.80
48806;DHT22;34625;47.176;27.548;2022-12-07T15:25:30;24.30;57.80
48806;DHT22;34625;47.176;27.548;2022-12-07T15:27:56;24.50;57.10
48806;DHT22;34625;47.176;27.548;2022-12-07T15:30:22;24.50;56.10
48806;DHT22;34625;47.176;27.548;2022-12-07T15:32:52;24.50;55.20
48806;DHT22;34625;47.176;27.548;2022-12-07T15:35:18;24.30;54.50
48806;DHT22;34625;47.176;27.548;2022-12-07T15:37:45;24.50;54.10
48806;DHT22;34625;47.176;27.548;2022-12-07T15:40:13;24.50;53.60
48806;DHT22;34625;47.176;27.548;2022-12-07T15:42:40;24.40;53.30
48806;DHT22;34625;47.176;27.548;2022-12-07T15:45:07;24.50;53.60
48806;DHT22;34625;47.176;27.548;2022-12-07T15:47:42;24.50;54.00
48806;DHT22;34625;47.176;27.548;2022-12-07T15:50:16;24.50;54.20
48806;DHT22;34625;47.176;27.548;2022-12-07T15:52:43;24.50;54.10
48806;DHT22;34625;47.176;27.548;2022-12-07T15:55:09;24.40;53.80
48806;DHT22;34625;47.176;27.548;2022-12-07T15:57:37;24.50;53.60
48806;DHT22;34625;47.176;27.548;2022-12-07T16:00:05;24.50;53.30
48806;DHT22;34625;47.176;27.548;2022-12-07T16:02:32;24.40;53.00
48806;DHT22;34625;47.176;27.548;2022-12-07T16:04:57;24.20;53.30
48806;DHT22;34625;47.176;27.548;2022-12-07T16:07:23;24.00;53.90
48806;DHT22;34625;47.176;27.548;2022-12-07T16:09:50;23.80;54.20
48806;DHT22;34625;47.176;27.548;2022-12-07T16:12:16;23.80;54.70
48806;DHT22;34625;47.176;27.548;2022-12-07T16:14:42;23.90;57.80
48806;DHT22;34625;47.176;27.548;2022-12-07T16:17:09;24.10;55.80
48806;DHT22;34625;47.176;27.548;2022-12-07T16:19:36;24.40;52.80
48806;DHT22;34625;47.176;27.548;2022-12-07T16:22:03;24.90;54.00
48806;DHT22;34625;47.176;27.548;2022-12-07T16:24:30;25.10;52.80
48806;DHT22;34625;47.176;27.548;2022-12-07T16:26:56;25.00;52.40
48806;DHT22;34625;47.176;27.548;2022-12-07T16:29:22;25.00;52.70
48806;DHT22;34625;47.176;27.548;2022-12-07T16:31:50;24.80;53.20
48806;DHT22;34625;47.176;27.548;2022-12-07T16:34:17;24.70;53.80
48806;DHT22;34625;47.176;27.548;2022-12-07T16:36:43;24.50;54.40
48806;DHT22;34625;47.176;27.548;2022-12-07T16:39:10;24.50;55.00
48806;DHT22;34625;47.176;27.548;2022-12-07T16:41:36;24.30;55.30
48806;DHT22;34625;47.176;27.548;2022-12-07T16:44:06;24.30;55.60
48806;DHT22;34625;47.176;27.548;2022-12-07T16:46:34;24.10;55.90
48806;DHT22;34625;47.176;27.548;2022-12-07T16:49:01;24.00;56.40
48806;DHT22;34625;47.176;27.548;2022-12-07T16:51:27;24.00;56.40
48806;DHT22;34625;47.176;27.548;2022-12-07T16:53:54;24.00;56.30
48806;DHT22;34625;47.176;27.548;2022-12-07T16:56:20;24.00;55.30
48806;DHT22;34625;47.176;27.548;2022-12-07T16:58:46;23.90;55.70
48806;DHT22;34625;47.176;27.548;2022-12-07T17:01:18;23.90;57.20
48806;DHT22;34625;47.176;27.548;2022-12-07T17:03:45;23.70;58.30
48806;DHT22;34625;47.176;27.548;2022-12-07T17:06:14;23.70;58.20
48806;DHT22;34625;47.176;27.548;2022-12-07T17:08:41;23.50;56.50
48806;DHT22;34625;47.176;27.548;2022-12-07T17:11:13;23.50;57.00
48806;DHT22;34625;47.176;27.548;2022-12-07T17:13:40;23.30;58.20
48806;DHT22;34625;47.176;27.548;2022-12-07T17:16:24;23.50;65.10
48806;DHT22;34625;47.176;27.548;2022-12-07T17:18:50;23.90;64.80
48806;DHT22;34625;47.176;27.548;2022-12-07T17:21:16;23.90;60.40
48806;DHT22;34625;47.176;27.548;2022-12-07T17:23:42;23.70;60.80
48806;DHT22;34625;47.176;27.548;2022-12-07T17:26:15;23.60;60.90
48806;DHT22;34625;47.176;27.548;2022-12-07T17:28:42;23.60;61.30
48806;DHT22;34625;47.176;27.548;2022-12-07T17:31:10;23.50;61.60
48806;DHT22;34625;47.176;27.548;2022-12-07T17:33:36;23.40;61.70
48806;DHT22;34625;47.176;27.548;2022-12-07T17:36:21;23.30;61.80
48806;DHT22;34625;47.176;27.548;2022-12-07T17:38:48;23.30;62.30
48806;DHT22;34625;47.176;27.548;2022-12-07T17:41:25;23.20;62.40
48806;DHT22;34625;47.176;27.548;2022-12-07T17:44:13;23.10;63.00
48806;DHT22;34625;47.176;27.548;2022-12-07T17:46:39;23.10;62.70
48806;DHT22;34625;47.176;27.548;2022-12-07T17:49:06;23.10;62.90
48806;DHT22;34625;47.176;27.548;2022-12-07T17:51:32;23.10;62.50
48806;DHT22;34625;47.176;27.548;2022-12-07T17:54:17;23.10;62.40
48806;DHT22;34625;47.176;27.548;2022-12-07T17:56:44;22.90;63.20
48806;DHT22;34625;47.176;27.548;2022-12-07T17:59:10;23.10;62.70
48806;DHT22;34625;47.176;27.548;2022-12-07T18:01:37;23.00;62.50
48806;DHT22;34625;47.176;27.548;2022-12-07T18:04:04;22.80;62.80
48806;DHT22;34625;47.176;27.548;2022-12-07T18:06:30;22.90;63.90
48806;DHT22;34625;47.176;27.548;2022-12-07T18:08:57;23.00;63.80
48806;DHT22;34625;47.176;27.548;2022-12-07T18:11:23;22.80;63.80